Time,TemperatureF,DewpointF,PressureIn,WindDirection,WindDirectionDegrees,WindSpeedMPH,WindSpeedGustMPH,Humidity,HourlyPrecipIn,Conditions,Clouds,dailyrainin,SoftwareType,DateUTC
2013-01-29 00:00:00,65.0,58.0,29.45,SSE,168,0.0,0.0,78,0.00,,,0.00,Wunderground v.1.15,2013-01-29 06:00:00,
2013-01-29 00:10:00,65.0,58.0,29.43,South,185,0.0,0.0,78,0.00,,,0.00,Wunderground v.1.15,2013-01-29 06:10:00,
2013-01-29 00:20:00,64.8,58.1,29.43,SSE,158,3.0,13.0,79,0.00,,,0.00,Wunderground v.1.15,2013-01-29 06:20:00,
2013-01-29 00:30:00,64.8,58.1,29.43,SSE,160,10.0,10.0,79,0.00,,,0.00,Wunderground v.1.15,2013-01-29 06:30:00,
2013-01-29 00:35:00,65.0,58.3,29.42,South,184,4.0,10.0,79,0.00,,,0.00,Wunderground v.1.15,2013-01-29 06:35:00,
2013-01-29 00:45:00,65.2,58.5,29.42,SSW,206,0.0,0.0,79,0.00,,,0.00,Wunderground v.1.15,2013-01-29 06:45:00,
2013-01-29 00:55:00,65.3,58.6,29.42,SSW,210,3.0,15.0,79,0.00,,,0.00,Wunderground v.1.15,2013-01-29 06:55:00,
2013-01-29 01:00:00,65.5,58.8,29.42,SSW,203,11.0,11.0,79,0.00,,,0.00,Wunderground v.1.15,2013-01-29 07:00:00,
2013-01-29 01:10:00,66.0,59.3,29.41,South,189,8.0,8.0,79,0.00,,,0.00,Wunderground v.1.15,2013-01-29 07:10:00,
2013-01-29 01:20:00,65.3,58.3,29.39,SSW,199,2.0,17.0,78,0.00,,,0.00,Wunderground v.1.15,2013-01-29 07:20:00,
2013-01-29 01:30:00,64.2,53.8,29.39,SW,224,21.0,23.0,69,0.00,,,0.00,Wunderground v.1.15,2013-01-29 07:30:00,
2013-01-29 01:35:00,63.7,53.3,29.39,SSW,199,19.0,23.0,69,0.00,,,0.00,Wunderground v.1.15,2013-01-29 07:35:00,
2013-01-29 01:45:00,62.9,54.1,29.39,SSW,203,7.0,15.0,73,0.00,,,0.00,Wunderground v.1.15,2013-01-29 07:45:00,
2013-01-29 01:55:00,63.4,56.1,29.39,SSW,209,0.0,2.0,77,0.00,,,0.00,Wunderground v.1.15,2013-01-29 07:55:00,
2013-01-29 02:05:00,64.2,57.5,29.39,South,178,0.0,0.0,79,0.00,,,0.00,Wunderground v.1.15,2013-01-29 08:05:00,
2013-01-29 02:15:00,64.2,57.5,29.39,SSW,202,4.0,16.0,79,0.00,,,0.00,Wunderground v.1.15,2013-01-29 08:15:00,
2013-01-29 02:25:00,63.7,57.4,29.38,SSW,210,12.0,15.0,80,0.00,,,0.00,Wunderground v.1.15,2013-01-29 08:25:00,
2013-01-29 02:30:00,63.9,57.6,29.38,SSW,206,12.0,12.0,80,0.00,,,0.00,Wunderground v.1.15,2013-01-29 08:30:00,
2013-01-29 02:40:00,63.5,57.6,29.39,SW,226,11.0,11.0,81,0.00,,,0.00,Wunderground v.1.15,2013-01-29 08:40:00,
2013-01-29 02:50:00,63.5,57.6,29.40,SW,230,2.0,2.0,81,0.00,,,0.00,Wunderground v.1.15,2013-01-29 08:50:00,
2013-01-29 03:00:00,63.5,57.2,29.40,SW,222,0.0,0.0,80,0.00,,,0.00,Wunderground v.1.15,2013-01-29 09:00:00,
2013-01-29 03:10:00,63.9,58.0,29.40,SSW,202,0.0,0.0,81,0.00,,,0.00,Wunderground v.1.15,2013-01-29 09:10:00,
2013-01-29 03:15:00,63.7,57.8,29.40,SW,229,3.0,13.0,81,0.00,,,0.00,Wunderground v.1.15,2013-01-29 09:15:00,
2013-01-29 03:25:00,64.0,58.1,29.41,WSW,237,12.0,18.0,81,0.00,,,0.00,Wunderground v.1.15,2013-01-29 09:25:00,
2013-01-29 03:30:00,64.0,57.7,29.41,SW,230,13.0,13.0,80,0.00,,,0.00,Wunderground v.1.15,2013-01-29 09:30:00,
2013-01-29 03:40:00,58.1,50.6,29.41,WNW,284,6.0,16.0,76,0.00,,,0.00,Wunderground v.1.15,2013-01-29 09:40:00,
2013-01-29 03:50:00,52.3,47.0,29.45,NW,323,13.0,17.0,82,0.00,,,0.00,Wunderground v.1.15,2013-01-29 09:50:00,
2013-01-29 04:00:00,49.1,44.2,29.45,NW,325,13.0,15.0,83,0.00,,,0.00,Wunderground v.1.15,2013-01-29 10:00:00,
2013-01-29 04:05:00,47.0,42.4,29.47,WNW,299,7.0,15.0,84,0.00,,,0.00,Wunderground v.1.15,2013-01-29 10:05:00,
2013-01-29 04:15:00,45.7,41.8,29.47,NW,319,3.0,6.0,86,0.00,,,0.00,Wunderground v.1.15,2013-01-29 10:15:00,
2013-01-29 04:20:00,44.9,41.0,29.47,NNW,335,4.0,4.0,86,0.00,,,0.00,Wunderground v.1.15,2013-01-29 10:20:00,
2013-01-29 04:30:00,43.5,39.9,29.47,NW,309,0.0,0.0,87,0.00,,,0.00,Wunderground v.1.15,2013-01-29 10:30:00,
2013-01-29 04:40:00,42.9,39.3,29.48,NW,313,1.0,1.0,87,0.00,,,0.00,Wunderground v.1.15,2013-01-29 10:40:00,
2013-01-29 04:45:00,42.6,39.3,29.48,NW,316,1.0,1.0,88,0.00,,,0.00,Wunderground v.1.15,2013-01-29 10:45:00,
2013-01-29 04:55:00,42.1,38.8,29.49,NW,325,0.0,0.0,88,0.00,,,0.00,Wunderground v.1.15,2013-01-29 10:55:00,
2013-01-29 05:00:00,41.9,38.6,29.49,NW,306,3.0,10.0,88,0.00,,,0.00,Wunderground v.1.15,2013-01-29 11:00:00,
2013-01-29 05:10:00,41.6,38.6,29.49,NW,308,8.0,9.0,89,0.00,,,0.00,Wunderground v.1.15,2013-01-29 11:10:00,
2013-01-29 05:20:00,41.1,38.1,29.50,NNW,329,10.0,10.0,89,0.00,,,0.00,Wunderground v.1.15,2013-01-29 11:20:00,
2013-01-29 05:30:00,40.8,37.8,29.50,NNW,328,9.0,9.0,89,0.00,,,0.00,Wunderground v.1.15,2013-01-29 11:30:00,
2013-01-29 05:40:00,40.3,37.3,29.50,NW,316,10.0,10.0,89,0.00,,,0.00,Wunderground v.1.15,2013-01-29 11:40:00,
2013-01-29 05:45:00,40.2,37.2,29.50,NW,326,9.0,10.0,89,0.00,,,0.00,Wunderground v.1.15,2013-01-29 11:45:00,
2013-01-29 05:55:00,39.9,36.9,29.51,NW,312,6.0,8.0,89,0.00,,,0.00,Wunderground v.1.15,2013-01-29 11:55:00,
2013-01-29 06:05:00,39.6,36.6,29.50,NNW,329,6.0,8.0,89,0.00,,,0.00,Wunderground v.1.15,2013-01-29 12:05:00,
2013-01-29 06:15:00,39.5,36.5,29.50,NNW,343,3.0,5.0,89,0.00,,,0.00,Wunderground v.1.15,2013-01-29 12:15:00,
2013-01-29 06:25:00,39.3,36.3,29.50,NW,322,3.0,6.0,89,0.00,,,0.00,Wunderground v.1.15,2013-01-29 12:25:00,
2013-01-29 06:35:00,39.1,36.1,29.52,NW,313,0.0,1.0,89,0.00,,,0.00,Wunderground v.1.15,2013-01-29 12:35:00,
2013-01-29 06:40:00,38.9,35.9,29.52,NW,320,0.0,0.0,89,0.00,,,0.00,Wunderground v.1.15,2013-01-29 12:40:00,
2013-01-29 06:50:00,38.6,35.6,29.52,NNW,342,6.0,11.0,89,0.00,,,0.00,Wunderground v.1.15,2013-01-29 12:50:00,
2013-01-29 07:00:00,38.3,35.3,29.52,NNW,329,8.0,8.0,89,0.00,,,0.00,Wunderground v.1.15,2013-01-29 13:00:00,
2013-01-29 07:05:00,38.3,35.3,29.53,NW,325,6.0,8.0,89,0.00,,,0.00,Wunderground v.1.15,2013-01-29 13:05:00,
2013-01-29 07:15:00,38.0,35.0,29.53,NNW,328,6.0,7.0,89,0.00,,,0.00,Wunderground v.1.15,2013-01-29 13:15:00,
2013-01-29 07:25:00,37.5,34.6,29.53,NNW,343,6.0,7.0,89,0.00,,,0.00,Wunderground v.1.15,2013-01-29 13:25:00,
2013-01-29 07:35:00,37.3,34.4,29.51,North,359,3.0,4.0,89,0.00,,,0.00,Wunderground v.1.15,2013-01-29 13:35:00,
2013-01-29 07:40:00,37.2,34.3,29.51,NW,316,3.0,3.0,89,0.00,,,0.00,Wunderground v.1.15,2013-01-29 13:40:00,
2013-01-29 07:50:00,37.0,34.1,29.51,NW,326,0.0,0.0,89,0.00,,,0.00,Wunderground v.1.15,2013-01-29 13:50:00,
2013-01-29 08:00:00,36.8,33.9,29.51,NW,313,5.0,10.0,89,0.00,,,0.00,Wunderground v.1.15,2013-01-29 14:00:00,
2013-01-29 08:10:00,36.8,33.9,29.53,NW,309,9.0,9.0,89,0.00,,,0.00,Wunderground v.1.15,2013-01-29 14:10:00,
2013-01-29 08:20:00,36.6,33.7,29.54,NW,311,9.0,9.0,89,0.00,,,0.00,Wunderground v.1.15,2013-01-29 14:20:00,
2013-01-29 08:25:00,36.5,33.6,29.54,NW,306,8.0,9.0,89,0.00,,,0.00,Wunderground v.1.15,2013-01-29 14:25:00,
2013-01-29 08:35:00,36.3,33.4,29.53,NW,319,5.0,8.0,89,0.00,,,0.00,Wunderground v.1.15,2013-01-29 14:35:00,
2013-01-29 08:45:00,36.3,33.4,29.53,NW,311,4.0,6.0,89,0.00,,,0.00,Wunderground v.1.15,2013-01-29 14:45:00,
2013-01-29 08:55:00,36.2,33.3,29.55,NW,322,0.0,2.0,89,0.00,,,0.00,Wunderground v.1.15,2013-01-29 14:55:00,
2013-01-29 09:05:00,35.9,33.0,29.56,WNW,299,0.0,0.0,89,0.00,,,0.00,Wunderground v.1.15,2013-01-29 15:05:00,
2013-01-29 09:15:00,35.8,32.9,29.56,NW,308,0.0,0.0,89,0.00,,,0.00,Wunderground v.1.15,2013-01-29 15:15:00,
2013-01-29 09:20:00,35.5,32.6,29.57,NW,315,0.0,0.0,89,0.00,,,0.00,Wunderground v.1.15,2013-01-29 15:20:00,
2013-01-29 09:30:00,35.3,32.4,29.57,NW,309,2.0,8.0,89,0.00,,,0.00,Wunderground v.1.15,2013-01-29 15:30:00,
2013-01-29 09:35:00,35.3,32.4,29.58,WNW,288,6.0,8.0,89,0.00,,,0.00,Wunderground v.1.15,2013-01-29 15:35:00,
2013-01-29 09:45:00,34.9,32.0,29.58,NW,315,8.0,8.0,89,0.00,,,0.00,Wunderground v.1.15,2013-01-29 15:45:00,
2013-01-29 09:55:00,34.7,31.8,29.57,NW,316,8.0,8.0,89,0.00,,,0.00,Wunderground v.1.15,2013-01-29 15:55:00,
2013-01-29 10:05:00,34.7,31.8,29.54,NW,313,6.0,7.0,89,0.00,,,0.00,Wunderground v.1.15,2013-01-29 16:05:00,
2013-01-29 10:15:00,34.7,31.8,29.54,NW,326,6.0,7.0,89,0.00,,,0.00,Wunderground v.1.15,2013-01-29 16:15:00,
2013-01-29 10:20:00,34.7,31.8,29.54,NNW,333,5.0,8.0,89,0.00,,,0.00,Wunderground v.1.15,2013-01-29 16:20:00,
2013-01-29 10:30:00,34.9,32.0,29.54,North,357,3.0,4.0,89,0.00,,,0.00,Wunderground v.1.15,2013-01-29 16:30:00,
2013-01-29 10:40:00,35.0,32.1,29.52,North,0,2.0,2.0,89,0.00,,,0.00,Wunderground v.1.15,2013-01-29 16:40:00,
2013-01-29 10:50:00,35.0,31.8,29.51,North,0,0.0,0.0,88,0.00,,,0.00,Wunderground v.1.15,2013-01-29 16:50:00,
2013-01-29 10:55:00,35.0,31.8,29.51,North,0,0.0,0.0,88,0.00,,,0.00,Wunderground v.1.15,2013-01-29 16:55:00,
2013-01-29 11:05:00,35.0,31.8,29.51,NNW,347,0.0,0.0,88,0.00,,,0.00,Wunderground v.1.15,2013-01-29 17:05:00,
2013-01-29 11:15:00,35.2,32.0,29.51,North,0,0.0,0.0,88,0.00,,,0.00,Wunderground v.1.15,2013-01-29 17:15:00,
2013-01-29 11:25:00,35.2,32.0,29.51,North,352,0.0,0.0,88,0.00,,,0.00,Wunderground v.1.15,2013-01-29 17:25:00,
2013-01-29 11:30:00,35.2,32.0,29.51,North,349,0.0,0.0,88,0.00,,,0.00,Wunderground v.1.15,2013-01-29 17:30:00,
2013-01-29 11:40:00,35.2,32.0,29.52,North,1,0.0,0.0,88,0.00,,,0.00,Wunderground v.1.15,2013-01-29 17:40:00,
2013-01-29 11:50:00,35.3,32.1,29.50,NNE,14,0.0,0.0,88,0.00,,,0.00,Wunderground v.1.15,2013-01-29 17:50:00,
2013-01-29 12:00:00,35.3,31.8,29.50,North,0,0.0,0.0,87,0.00,,,0.00,Wunderground v.1.15,2013-01-29 18:00:00,
2013-01-29 12:10:00,35.2,31.7,29.50,North,353,2.0,8.0,87,0.00,,,0.00,Wunderground v.1.15,2013-01-29 18:10:00,
2013-01-29 12:15:00,35.2,31.7,29.50,North,356,6.0,8.0,87,0.00,,,0.00,Wunderground v.1.15,2013-01-29 18:15:00,
2013-01-29 12:25:00,35.5,32.3,29.49,North,11,7.0,7.0,88,0.00,,,0.00,Wunderground v.1.15,2013-01-29 18:25:00,
2013-01-29 12:35:00,35.3,32.1,29.46,North,350,8.0,8.0,88,0.00,,,0.00,Wunderground v.1.15,2013-01-29 18:35:00,
2013-01-29 12:45:00,35.3,32.1,29.46,NNE,14,5.0,8.0,88,0.00,,,0.00,Wunderground v.1.15,2013-01-29 18:45:00,
2013-01-29 12:55:00,35.2,32.0,29.46,North,1,1.0,2.0,88,0.00,,,0.00,Wunderground v.1.15,2013-01-29 18:55:00,
2013-01-29 13:00:00,35.2,31.7,29.46,North,0,0.0,0.0,87,0.00,,,0.00,Wunderground v.1.15,2013-01-29 19:00:00,
2013-01-29 13:10:00,35.3,31.8,29.46,North,6,0.0,0.0,87,0.00,,,0.00,Wunderground v.1.15,2013-01-29 19:10:00,
2013-01-29 13:20:00,35.2,31.7,29.46,North,359,0.0,0.0,87,0.00,,,0.00,Wunderground v.1.15,2013-01-29 19:20:00,
2013-01-29 13:25:00,35.2,31.7,29.46,North,0,0.0,0.0,87,0.00,,,0.00,Wunderground v.1.15,2013-01-29 19:25:00,
2013-01-29 13:35:00,35.3,31.8,29.46,North,357,0.0,0.0,87,0.00,,,0.00,Wunderground v.1.15,2013-01-29 19:35:00,
2013-01-29 13:45:00,35.2,31.7,29.46,North,3,4.0,7.0,87,0.00,,,0.00,Wunderground v.1.15,2013-01-29 19:45:00,
2013-01-29 13:50:00,35.2,31.7,29.44,North,0,8.0,11.0,87,0.00,,,0.00,Wunderground v.1.15,2013-01-29 19:50:00,
2013-01-29 14:00:00,35.0,31.5,29.44,North,10,8.0,8.0,87,0.00,,,0.00,Wunderground v.1.15,2013-01-29 20:00:00,
2013-01-29 14:10:00,34.9,31.4,29.44,NNE,16,8.0,9.0,87,0.00,,,0.00,Wunderground v.1.15,2013-01-29 20:10:00,
2013-01-29 14:15:00,34.9,31.4,29.44,North,357,7.0,9.0,87,0.00,,,0.00,Wunderground v.1.15,2013-01-29 20:15:00,
2013-01-29 14:20:00,35.0,31.5,29.46,North,0,6.0,7.0,87,0.00,,,0.00,Wunderground v.1.15,2013-01-29 20:20:00,
2013-01-29 14:25:00,34.9,31.4,29.46,North,3,6.0,7.0,87,0.00,,,0.00,Wunderground v.1.15,2013-01-29 20:25:00,
2013-01-29 14:35:00,34.9,31.4,29.45,NNE,17,2.0,5.0,87,0.00,,,0.00,Wunderground v.1.15,2013-01-29 20:35:00,
2013-01-29 14:40:00,34.7,31.2,29.45,North,0,0.0,0.0,87,0.00,,,0.00,Wunderground v.1.15,2013-01-29 20:40:00,
2013-01-29 14:50:00,34.9,31.4,29.43,North,4,0.0,0.0,87,0.00,,,0.00,Wunderground v.1.15,2013-01-29 20:50:00,
2013-01-29 15:00:00,34.9,31.4,29.43,North,354,0.0,0.0,87,0.00,,,0.00,Wunderground v.1.15,2013-01-29 21:00:00,
2013-01-29 15:10:00,34.7,31.5,29.43,North,0,1.0,11.0,88,0.00,,,0.00,Wunderground v.1.15,2013-01-29 21:10:00,
2013-01-29 15:15:00,34.6,31.4,29.43,North,10,6.0,11.0,88,0.00,,,0.00,Wunderground v.1.15,2013-01-29 21:15:00,
2013-01-29 15:25:00,34.7,31.5,29.46,North,359,8.0,9.0,88,0.00,,,0.00,Wunderground v.1.15,2013-01-29 21:25:00,
2013-01-29 15:30:00,34.7,31.5,29.46,North,1,8.0,8.0,88,0.00,,,0.00,Wunderground v.1.15,2013-01-29 21:30:00,
2013-01-29 15:40:00,34.9,31.7,29.47,North,356,7.0,7.0,88,0.00,,,0.00,Wunderground v.1.15,2013-01-29 21:40:00,
2013-01-29 15:45:00,34.9,31.7,29.47,North,352,8.0,8.0,88,0.00,,,0.00,Wunderground v.1.15,2013-01-29 21:45:00,
2013-01-29 15:55:00,34.9,31.4,29.48,North,3,8.0,8.0,87,0.00,,,0.00,Wunderground v.1.15,2013-01-29 21:55:00,
2013-01-29 16:05:00,34.9,31.4,29.49,North,359,3.0,6.0,87,0.00,,,0.00,Wunderground v.1.15,2013-01-29 22:05:00,
2013-01-29 16:15:00,34.9,31.4,29.49,North,359,1.0,4.0,87,0.00,,,0.00,Wunderground v.1.15,2013-01-29 22:15:00,
2013-01-29 16:25:00,34.9,31.4,29.49,NNW,346,0.0,0.0,87,0.00,,,0.00,Wunderground v.1.15,2013-01-29 22:25:00,
2013-01-29 16:30:00,34.9,31.7,29.49,North,0,0.0,0.0,88,0.00,,,0.00,Wunderground v.1.15,2013-01-29 22:30:00,
2013-01-29 16:40:00,34.7,31.5,29.49,NNE,14,0.0,0.0,88,0.00,,,0.00,Wunderground v.1.15,2013-01-29 22:40:00,
2013-01-29 16:50:00,34.6,31.4,29.45,North,357,9.0,9.0,88,0.00,,,0.00,Wunderground v.1.15,2013-01-29 22:50:00,
2013-01-29 17:00:00,34.7,31.5,29.45,North,0,7.0,7.0,88,0.00,,,0.00,Wunderground v.1.15,2013-01-29 23:00:00,
2013-01-29 17:10:00,34.9,31.7,29.48,North,1,8.0,8.0,88,0.00,,,0.00,Wunderground v.1.15,2013-01-29 23:10:00,
2013-01-29 17:15:00,34.9,31.7,29.48,North,359,8.0,10.0,88,0.00,,,0.00,Wunderground v.1.15,2013-01-29 23:15:00,
2013-01-29 17:25:00,35.0,31.8,29.49,North,0,7.0,8.0,88,0.00,,,0.00,Wunderground v.1.15,2013-01-29 23:25:00,
2013-01-29 17:35:00,35.0,31.8,29.49,NNW,344,2.0,7.0,88,0.00,,,0.00,Wunderground v.1.15,2013-01-29 23:35:00,
2013-01-29 17:45:00,35.0,31.8,29.49,North,0,1.0,1.0,88,0.00,,,0.00,Wunderground v.1.15,2013-01-29 23:45:00,
2013-01-29 17:55:00,35.0,31.8,29.51,North,1,0.0,1.0,88,0.00,,,0.00,Wunderground v.1.15,2013-01-29 23:55:00,
2013-01-29 18:00:00,35.0,31.8,29.51,North,0,0.0,0.0,88,0.00,,,0.00,Wunderground v.1.15,2013-01-30 00:00:00,
2013-01-29 18:10:00,34.9,31.7,29.50,NNE,30,2.0,7.0,88,0.00,,,0.00,Wunderground v.1.15,2013-01-30 00:10:00,
2013-01-29 18:20:00,34.9,31.7,29.48,NNE,25,9.0,10.0,88,0.00,,,0.00,Wunderground v.1.15,2013-01-30 00:20:00,
2013-01-29 18:30:00,34.9,31.7,29.48,North,8,7.0,8.0,88,0.00,,,0.00,Wunderground v.1.15,2013-01-30 00:30:00,
2013-01-29 18:40:00,34.9,31.7,29.48,North,3,6.0,7.0,88,0.00,,,0.00,Wunderground v.1.15,2013-01-30 00:40:00,
2013-01-29 18:45:00,34.9,31.7,29.48,North,1,6.0,7.0,88,0.00,,,0.00,Wunderground v.1.15,2013-01-30 00:45:00,
2013-01-29 18:55:00,34.7,31.5,29.48,North,0,7.0,7.0,88,0.00,,,0.00,Wunderground v.1.15,2013-01-30 00:55:00,
2013-01-29 19:05:00,34.6,31.4,29.49,North,10,7.0,8.0,88,0.00,,,0.00,Wunderground v.1.15,2013-01-30 01:05:00,
2013-01-29 19:15:00,34.4,31.2,29.49,North,354,0.0,3.0,88,0.00,,,0.00,Wunderground v.1.15,2013-01-30 01:15:00,
2013-01-29 19:25:00,34.4,31.2,29.50,NNW,342,0.0,0.0,88,0.00,,,0.00,Wunderground v.1.15,2013-01-30 01:25:00,
2013-01-29 19:30:00,34.3,31.1,29.50,NNW,328,0.0,0.0,88,0.00,,,0.00,Wunderground v.1.15,2013-01-30 01:30:00,
2013-01-29 19:40:00,34.1,31.2,29.51,North,350,0.0,0.0,89,0.00,,,0.01,Wunderground v.1.15,2013-01-30 01:40:00,
2013-01-29 19:50:00,34.0,31.1,29.50,NNE,21,0.0,0.0,89,0.05,,,0.02,Wunderground v.1.15,2013-01-30 01:50:00,
2013-01-29 20:00:00,33.8,30.9,29.50,NNE,23,3.0,11.0,89,0.08,,,0.03,Wunderground v.1.15,2013-01-30 02:00:00,
2013-01-29 20:10:00,33.5,30.6,29.49,North,8,9.0,10.0,89,0.00,,,0.03,Wunderground v.1.15,2013-01-30 02:10:00,
2013-01-29 20:15:00,33.5,30.6,29.49,North,8,8.0,10.0,89,0.00,,,0.03,Wunderground v.1.15,2013-01-30 02:15:00,
2013-01-29 20:25:00,33.5,30.6,29.49,North,10,6.0,7.0,89,0.00,,,0.03,Wunderground v.1.15,2013-01-30 02:25:00,
2013-01-29 20:35:00,33.4,30.5,29.49,NNE,23,5.0,9.0,89,0.00,,,0.03,Wunderground v.1.15,2013-01-30 02:35:00,
2013-01-29 20:45:00,33.4,30.5,29.49,North,354,6.0,7.0,89,0.00,,,0.03,Wunderground v.1.15,2013-01-30 02:45:00,
2013-01-29 20:55:00,33.2,30.3,29.49,North,1,6.0,8.0,89,0.00,,,0.03,Wunderground v.1.15,2013-01-30 02:55:00,
2013-01-29 21:00:00,33.2,30.3,29.49,North,0,4.0,4.0,89,0.00,,,0.03,Wunderground v.1.15,2013-01-30 03:00:00,
2013-01-29 21:10:00,33.1,30.2,29.50,NNE,21,1.0,1.0,89,0.00,,,0.03,Wunderground v.1.15,2013-01-30 03:10:00,
2013-01-29 21:20:00,33.1,30.2,29.48,NNE,16,0.0,0.0,89,0.00,,,0.03,Wunderground v.1.15,2013-01-30 03:20:00,
2013-01-29 21:30:00,33.1,30.2,29.48,NNE,23,0.0,4.0,89,0.00,,,0.03,Wunderground v.1.15,2013-01-30 03:30:00,
2013-01-29 21:40:00,33.1,30.2,29.48,NNE,30,7.0,7.0,89,0.00,,,0.03,Wunderground v.1.15,2013-01-30 03:40:00,
2013-01-29 21:45:00,33.1,30.2,29.48,North,0,5.0,7.0,89,0.00,,,0.03,Wunderground v.1.15,2013-01-30 03:45:00,
2013-01-29 21:55:00,33.1,30.2,29.52,NNE,24,4.0,7.0,89,0.00,,,0.03,Wunderground v.1.15,2013-01-30 03:55:00,
2013-01-29 22:00:00,32.9,30.0,29.52,NNE,24,6.0,6.0,89,0.00,,,0.03,Wunderground v.1.15,2013-01-30 04:00:00,
2013-01-29 22:10:00,32.9,30.0,29.51,NNE,25,5.0,5.0,89,0.00,,,0.03,Wunderground v.1.15,2013-01-30 04:10:00,
2013-01-29 22:20:00,32.8,29.9,29.48,NNE,31,0.0,0.0,89,0.00,,,0.03,Wunderground v.1.15,2013-01-30 04:20:00,
2013-01-29 22:25:00,32.7,29.8,29.48,NNE,16,0.0,0.0,89,0.00,,,0.03,Wunderground v.1.15,2013-01-30 04:25:00,
2013-01-29 22:35:00,32.5,29.6,29.43,NNE,25,7.0,13.0,89,0.00,,,0.03,Wunderground v.1.15,2013-01-30 04:35:00,
2013-01-29 22:45:00,32.4,29.5,29.43,NE,41,10.0,10.0,89,0.00,,,0.03,Wunderground v.1.15,2013-01-30 04:45:00,
2013-01-29 22:55:00,32.4,29.5,29.46,North,0,9.0,11.0,89,0.00,,,0.03,Wunderground v.1.15,2013-01-30 04:55:00,
2013-01-29 23:00:00,32.2,29.3,29.46,North,7,8.0,8.0,89,0.00,,,0.03,Wunderground v.1.15,2013-01-30 05:00:00,
2013-01-29 23:10:00,32.1,29.2,29.42,NNE,17,8.0,8.0,89,0.00,,,0.03,Wunderground v.1.15,2013-01-30 05:10:00,
2013-01-29 23:20:00,32.1,29.2,29.46,North,357,7.0,7.0,89,0.00,,,0.03,Wunderground v.1.15,2013-01-30 05:20:00,
2013-01-29 23:25:00,32.1,29.2,29.46,North,1,7.0,7.0,89,0.00,,,0.03,Wunderground v.1.15,2013-01-30 05:25:00,
2013-01-29 23:30:00,32.1,29.2,29.46,North,359,7.0,7.0,89,0.00,,,0.03,Wunderground v.1.15,2013-01-30 05:30:00,
2013-01-29 23:35:00,32.1,29.2,29.48,North,0,5.0,7.0,89,0.00,,,0.03,Wunderground v.1.15,2013-01-30 05:35:00,
2013-01-29 23:45:00,31.9,29.0,29.48,NNE,18,1.0,3.0,89,0.00,,,0.03,Wunderground v.1.15,2013-01-30 05:45:00,
2013-01-29 23:50:00,31.9,29.0,29.48,North,6,3.0,7.0,89,0.00,,,0.03,Wunderground v.1.15,2013-01-30 05:50:00,
2013-01-29 23:55:00,31.9,29.0,29.48,NNE,20,3.0,7.0,89,0.00,,,0.03,Wunderground v.1.15,2013-01-30 05:55:00,